Latest Weather Observations for Ballera

IDQ60801

Issued at 11:02 pm EST Sunday 21 July 2019 (issued every 10 minutes, with the page automatically refreshed every 10 minutes)

About weather observations | Map of weather stations | Latest weather observations for QLD | Other Formats
Station Details ID: 045009 Name: BALLERA GAS FIELD Lat: -27.40 Lon: 141.81 Height: 114.5 m
Data from the previous 72 hours. | See also: Recent months at Ballera
Date/Time
EST
Temp
°C
App
Temp
°C
Dew
Point
°C
Rel
Hum
%
Delta-T
°C
Wind Press
QNH
hPa
Press
MSL
hPa
Rain since
9am
mm
Dir  Spd
km/h
Gust
km/h
Spd
kts
Gust
kts
21/11:00pm 14.2 7.9 -4.0 28 7.0 SW 20 24 11 13 1016.0 1016.0 0.0
21/10:30pm 15.1 6.9 -3.7 27 7.4 SW 30 33 16 18 1015.9 1015.9 0.0
21/10:00pm 15.5 8.8 -3.9 26 7.6 SW 22 28 12 15 1015.8 1015.8 0.0
21/09:30pm 15.3 9.5 -4.6 25 7.7 WSW 17 19 9 10 1015.9 1015.9 0.0
21/09:00pm 16.8 11.0 -5.0 22 8.5 WSW 17 19 9 10 1015.7 1015.7 0.0
21/08:30pm 17.3 12.6 -5.2 21 8.8 WSW 11 13 6 7 1015.4 1015.4 0.0
21/08:00pm 17.8 13.1 -4.8 21 8.9 WSW 11 13 6 7 1015.1 1015.0 0.0
21/07:30pm 17.6 12.5 -5.0 21 8.9 WSW 13 15 7 8 1015.0 1014.9 0.0
21/07:00pm 18.8 13.8 -4.6 20 9.4 W 13 15 7 8 1014.6 1014.5 0.0
21/06:30pm 20.1 14.7 -4.9 18 10.1 WNW 15 15 8 8 1014.2 1014.1 0.0
21/06:00pm 22.0 16.9 -4.9 16 11.0 WNW 13 17 7 9 1013.9 1013.8 0.0
21/05:30pm 23.6 17.2 -5.4 14 12.0 WNW 20 28 11 15 1013.7 1013.6 0.0
21/05:00pm 24.4 18.0 -4.8 14 12.3 WNW 20 26 11 14 1013.5 1013.4 0.0
21/04:30pm 24.7 17.5 -5.5 13 12.6 WNW 24 35 13 19 1013.5 1013.4 0.0
21/04:00pm 24.8 18.1 -4.5 14 12.4 WNW 22 30 12 16 1013.4 1013.3 0.0
21/03:30pm 24.7 18.3 -4.6 14 12.4 WNW 20 28 11 15 1013.6 1013.5 0.0
21/03:00pm 24.6 17.5 -4.6 14 12.3 WNW 24 32 13 17 1013.7 1013.6 0.0
21/02:30pm 25.6 18.5 -4.8 13 12.9 WNW 24 35 13 19 1013.9 1013.8 0.0
21/02:00pm 24.7 16.8 -4.6 14 12.4 WNW 28 41 15 22 1014.1 1014.0 0.0
21/01:30pm 24.4 16.1 -4.8 14 12.3 NW 30 39 16 21 1014.4 1014.3 0.0
21/01:00pm 24.1 15.9 -4.1 15 12.0 NW 30 41 16 22 1015.0 1014.9 0.0
21/12:30pm 23.5 15.7 -3.7 16 11.6 NNW 28 37 15 20 1015.6 1015.6 0.0
21/12:00pm 22.5 14.7 -3.7 17 11.0 NNW 28 35 15 19 1016.2 1016.2 0.0
21/11:30am 22.0 13.5 -3.4 18 10.7 NNW 32 39 17 21 1016.7 1016.7 0.0
21/11:00am 20.8 12.1 -3.0 20 10.0 NW 33 41 18 22 1016.9 1016.9 0.0
21/10:30am 20.9 14.0 -2.9 20 10.1 NW 24 33 13 18 1017.3 1017.3 0.0
21/10:00am 18.2 12.1 -2.7 24 8.6 N 20 24 11 13 1017.1 1017.1 0.0
21/09:30am 16.6 9.7 -2.5 27 7.8 NNW 24 33 13 18 1017.0 1017.0 0.0
21/09:00am 14.5 7.6 -2.4 31 6.8 N 24 30 13 16 1016.3 1016.3 0.0
21/08:30am 12.8 6.7 -2.3 35 6.0 N 20 28 11 15 1016.4 1016.4 0.0
21/08:00am 11.6 5.7 -1.9 39 5.3 N 19 26 10 14 1016.2 1016.2 0.0
21/07:30am 10.0 4.1 -1.1 46 4.4 N 20 26 11 14 1015.7 1015.7 0.0
21/07:00am 10.2 4.2 -1.2 45 4.5 N 20 26 11 14 1015.5 1015.5 0.0
21/06:30am 10.4 4.0 -1.6 43 4.7 NNE 22 28 12 15 1015.0 1014.9 0.0
21/06:00am 11.0 4.3 -0.8 44 4.7 N 24 28 13 15 1014.7 1014.6 0.0
21/05:30am 11.1 4.4 -1.0 43 4.8 NNE 24 28 13 15 1014.6 1014.5 0.0
21/05:00am 10.9 3.9 -0.5 45 4.6 NNE 26 28 14 15 1014.2 1014.1 0.0
21/04:30am 11.6 5.4 -0.5 43 4.9 N 22 28 12 15 1014.5 1014.4 0.0
21/04:00am 11.9 6.1 0.1 44 4.9 N 20 26 11 14 1014.8 1014.7 0.0
21/03:30am 11.1 5.9 0.2 47 4.5 N 17 19 9 10 1015.4 1015.4 0.0
21/03:00am 11.2 5.5 -0.6 44 4.8 N 19 20 10 11 1015.7 1015.7 0.0
21/02:30am 11.5 6.2 -0.6 43 4.9 N 17 19 9 10 1016.0 1016.0 0.0
21/02:00am 11.7 6.4 -0.8 42 5.0 N 17 19 9 10 1016.2 1016.2 0.0
21/01:30am 13.7 8.0 0.4 40 5.6 N 20 22 11 12 1016.1 1016.1 0.0
21/01:00am 14.0 8.7 -0.8 36 6.1 NNW 17 24 9 13 1016.6 1016.6 0.0
21/12:30am 12.6 7.5 0.7 44 5.0 N 17 17 9 9 1016.8 1016.8 0.0
21/12:00am 13.7 8.6 1.0 42 5.4 N 17 19 9 10 1016.7 1016.7 0.0
 
Date/Time
EST
Temp
°C
App
Temp
°C
Dew
Point
°C
Rel
Hum
%
Delta-T
°C
Wind Press
QNH
hPa
Press
MSL
hPa
Rain since
9am
mm
Dir  Spd
km/h
Gust
km/h
Spd
kts
Gust
kts
20/11:30pm 13.3 8.6 0.7 42 5.3 N 15 17 8 9 1016.8 1016.8 0.0
20/11:00pm 14.6 9.8 2.5 44 5.4 N 17 19 9 10 1016.6 1016.6 0.0
20/10:30pm 15.0 9.7 1.9 41 5.8 N 19 20 10 11 1016.6 1016.6 0.0
20/10:00pm 15.2 8.9 1.7 40 6.0 NNE 24 26 13 14 1016.2 1016.2 0.0
20/09:30pm 15.0 9.6 2.2 42 5.7 N 20 22 11 12 1016.9 1016.9 0.0
20/09:00pm 15.5 10.7 2.7 42 5.8 NNE 17 19 9 10 1017.4 1017.4 0.0
20/08:30pm 15.2 10.6 1.4 39 6.1 NNE 15 15 8 8 1017.4 1017.4 0.0
20/08:00pm 15.8 11.1 1.2 37 6.4 NNE 15 17 8 9 1017.3 1017.3 0.0
20/07:30pm 16.5 12.1 2.5 39 6.4 NNE 15 17 8 9 1017.2 1017.2 0.0
20/07:00pm 17.6 13.0 1.6 34 7.2 NNE 15 17 8 9 1017.0 1017.0 0.0
20/06:30pm 18.6 14.3 1.2 31 7.8 NNE 13 15 7 8 1016.7 1016.7 0.0
20/06:00pm 20.2 15.5 1.1 28 8.7 NNE 15 17 8 9 1016.5 1016.5 0.0
20/05:30pm 21.7 16.7 1.4 26 9.4 NNE 17 24 9 13 1016.3 1016.3 0.0
20/05:00pm 22.3 17.0 -0.4 22 10.2 N 17 24 9 13 1016.3 1016.3 0.0
20/04:30pm 22.8 17.6 0.0 22 10.4 N 17 24 9 13 1016.2 1016.2 0.0
20/04:00pm 22.5 17.6 -0.3 22 10.3 N 15 24 8 13 1016.3 1016.3 0.0
20/03:30pm 22.7 17.3 -1.4 20 10.7 N 17 24 9 13 1016.7 1016.7 0.0
20/03:00pm 22.9 17.5 -1.2 20 10.7 NNW 17 24 9 13 1016.9 1016.9 0.0
20/02:30pm 22.4 16.6 -1.6 20 10.5 N 19 28 10 15 1017.2 1017.2 0.0
20/02:00pm 22.3 16.9 -1.1 21 10.4 N 17 24 9 13 1017.7 1017.7 0.0
20/01:30pm 21.2 15.6 -0.1 24 9.5 N 19 26 10 14 1018.2 1018.2 0.0
20/01:00pm 21.4 16.2 0.0 24 9.6 N 17 24 9 13 1018.8 1018.8 0.0
20/12:30pm 21.4 15.8 1.1 26 9.3 N 20 26 11 14 1019.4 1019.4 0.0
20/12:00pm 20.3 14.6 0.7 27 8.8 NNE 20 24 11 13 1019.9 1019.9 0.0
20/11:30am 19.5 13.3 0.0 27 8.6 N 22 28 12 15 1020.3 1020.3 0.0
20/11:00am 18.8 12.0 0.9 30 8.0 NNE 26 32 14 17 1020.8 1020.7 0.0
20/10:30am 17.6 11.1 0.3 31 7.6 NNE 24 30 13 16 1021.1 1021.0 0.0
20/10:00am 16.3 10.2 0.4 34 6.9 NNE 22 30 12 16 1021.3 1021.2 0.0
20/09:30am 14.4 8.3 0.3 38 6.0 NNE 22 26 12 14 1021.1 1021.0 0.0
20/09:00am 13.2 7.7 0.3 41 5.4 NE 19 22 10 12 1021.0 1020.9 0.0
20/08:30am 11.3 6.5 0.1 46 4.6 NE 15 20 8 11 1021.0 1020.9 0.0
20/08:00am 8.5 3.4 -1.6 49 3.9 NE 15 17 8 9 1020.9 1020.8 0.0
20/07:30am 8.6 3.3 -0.9 51 3.7 NE 17 19 9 10 1020.4 1020.4 0.0
20/07:00am 10.3 4.7 0.9 52 3.9 NE 20 20 11 11 1020.0 1020.0 0.0
20/06:30am 8.1 3.1 -0.9 53 3.5 NE 15 17 8 9 1019.9 1019.9 0.0
20/06:00am 7.6 3.0 -1.4 53 3.4 E 13 13 7 7 1019.8 1019.8 0.0
20/05:30am 8.6 4.0 -0.9 51 3.7 E 13 13 7 7 1019.7 1019.7 0.0
20/05:00am 9.4 5.6 -0.5 50 3.9 E 9 11 5 6 1019.6 1019.6 0.0
20/04:30am 9.9 5.8 -0.3 49 4.1 E 11 11 6 6 1019.6 1019.6 0.0
20/04:00am 9.5 4.9 -0.7 49 4.0 ESE 13 13 7 7 1019.8 1019.8 0.0
20/03:30am 9.4 4.8 -1.0 48 4.1 ESE 13 15 7 8 1020.0 1020.0 0.0
20/03:00am 10.0 5.8 -1.1 46 4.4 ESE 11 13 6 7 1020.2 1020.2 0.0
20/02:30am 10.8 6.3 -0.6 45 4.6 ESE 13 13 7 7 1020.4 1020.4 0.0
20/02:00am 11.2 7.1 -0.3 45 4.7 ESE 11 13 6 7 1020.6 1020.6 0.0
20/01:30am 10.5 6.4 0.0 48 4.3 ESE 11 13 6 7 1020.8 1020.7 0.0
20/01:00am 11.0 7.4 0.4 48 4.4 ESE 9 13 5 7 1020.6 1020.6 0.0
20/12:30am 10.5 6.1 0.3 49 4.2 ESE 13 13 7 7 1020.8 1020.7 0.0
20/12:00am 10.9 6.4 -0.2 46 4.5 SSE 13 15 7 8 1021.1 1021.0 0.0
 
Date/Time
EST
Temp
°C
App
Temp
°C
Dew
Point
°C
Rel
Hum
%
Delta-T
°C
Wind Press
QNH
hPa
Press
MSL
hPa
Rain since
9am
mm
Dir  Spd
km/h
Gust
km/h
Spd
kts
Gust
kts
19/11:30pm 11.9 7.5 0.4 45 4.8 SSE 13 13 7 7 1021.1 1021.0 0.0
19/11:00pm 12.0 7.6 0.1 44 4.9 SSE 13 13 7 7 1021.2 1021.1 0.0
19/10:30pm 12.4 8.4 0.2 43 5.1 SSE 11 13 6 7 1021.3 1021.2 0.0
19/10:00pm 12.6 8.5 0.0 42 5.2 SSE 11 13 6 7 1021.3 1021.2 0.0
19/09:30pm 13.1 8.7 0.2 41 5.4 SSE 13 13 7 7 1021.2 1021.1 0.0
19/09:00pm 14.2 9.9 0.8 40 5.7 SSE 13 15 7 8 1021.0 1020.9 0.0
19/08:30pm 13.9 9.5 0.5 40 5.7 SSE 13 15 7 8 1021.0 1020.9 0.0
19/08:00pm 14.7 9.9 0.2 37 6.1 SSE 15 17 8 9 1021.0 1020.9 0.0
19/07:30pm 15.7 11.2 -0.5 33 6.9 SE 13 15 7 8 1020.8 1020.7 0.0
19/07:00pm 17.0 13.3 -0.2 31 7.4 ESE 9 11 5 6 1020.4 1020.4 0.0
19/06:30pm 17.4 13.3 -0.3 30 7.6 ESE 11 13 6 7 1020.3 1020.3 0.0
19/06:00pm 18.9 15.7 -0.5 27 8.4 ESE 6 7 3 4 1020.0 1020.0 0.0
19/05:30pm 19.7 16.5 -0.3 26 8.8 ESE 6 9 3 5 1019.9 1019.9 0.0
19/05:00pm 20.3 16.6 0.2 26 9.0 ESE 9 17 5 9 1019.8 1019.8 0.0
19/04:30pm 20.4 16.4 0.3 26 9.0 NE 11 15 6 8 1019.8 1019.8 0.0
19/04:00pm 20.4 16.0 0.3 26 9.0 NE 13 20 7 11 1019.5 1019.5 0.0
19/03:30pm 20.9 17.4 1.2 27 9.0 NNE 9 17 5 9 1019.4 1019.4 0.0
19/03:00pm 20.4 16.1 1.3 28 8.7 NE 13 19 7 10 1019.7 1019.7 0.0
19/02:30pm 20.3 16.0 1.2 28 8.7 ENE 13 20 7 11 1019.8 1019.8 0.0
19/02:00pm 19.6 15.3 1.1 29 8.3 E 13 19 7 10 1020.2 1020.2 0.0
19/01:30pm 19.4 15.4 2.7 33 7.8 ENE 13 17 7 9 1020.6 1020.6 0.0
19/01:00pm 19.3 15.3 2.6 33 7.7 E 13 22 7 12 1021.1 1021.0 0.0
19/12:30pm 19.1 14.4 2.9 34 7.6 ENE 17 24 9 13 1021.5 1021.4 0.0
19/12:00pm 17.9 13.0 2.2 35 7.1 E 17 24 9 13 1022.4 1022.3 0.0
19/11:30am 17.4 12.9 4.4 42 6.2 E 17 24 9 13 1022.9 1022.9 0.0
19/11:00am 15.8 11.2 3.6 44 5.6 ESE 17 20 9 11 1023.3 1023.3 0.0
19/10:30am 15.2 10.3 2.1 41 5.8 ESE 17 20 9 11 1023.4 1023.4 0.0
19/10:00am 13.4 7.9 1.7 45 5.1 ESE 20 24 11 13 1023.4 1023.4 0.0
19/09:30am 12.5 6.9 0.0 42 5.2 SE 19 22 10 12 1023.4 1023.4 0.0
19/09:00am 11.5 7.3 -0.6 43 4.9 SSE 11 13 6 7 1023.2 1023.2 0.0
19/08:30am 9.8 5.3 -0.4 49 4.1 SSE 13 13 7 7 1023.0 1023.0 0.0
19/08:00am 7.6 3.3 -1.4 53 3.4 SSE 11 11 6 6 1022.9 1022.9 0.0
19/07:30am 7.6 3.3 -1.4 53 3.4 SSE 11 13 6 7 1022.4 1022.3 0.0
19/07:00am 7.6 3.8 -1.1 54 3.3 SSE 9 11 5 6 1022.6 1022.5 0.0
19/06:30am 8.4 3.8 -0.9 52 3.6 SSE 13 17 7 9 1022.4 1022.3 0.0
19/06:00am 8.3 4.1 -0.7 53 3.5 S 11 15 6 8 1022.2 1022.1 0.0
19/05:30am 8.6 4.5 -0.4 53 3.6 S 11 13 6 7 1021.7 1021.6 0.0
19/05:00am 8.3 3.8 -0.4 54 3.4 S 13 15 7 8 1021.6 1021.5 0.0
19/04:30am 7.9 3.8 -0.3 56 3.2 SSW 11 13 6 7 1021.7 1021.6 0.0
19/04:00am 7.8 3.3 -0.4 56 3.2 SSW 13 13 7 7 1022.0 1021.9 0.0
19/03:30am 9.0 5.3 0.2 54 3.5 SSW 9 11 5 6 1021.9 1021.8 0.0
19/03:00am 8.7 5.0 -0.3 53 3.5 SSW 9 11 5 6 1021.8 1021.7 0.0
19/02:30am 9.0 5.3 -0.1 53 3.6 SSW 9 13 5 7 1021.9 1021.8 0.0
19/02:00am 8.9 4.4 -0.1 53 3.6 SSW 13 13 7 7 1021.8 1021.7 0.0
19/01:30am 8.9 4.8 -0.4 52 3.7 SSW 11 13 6 7 1021.9 1021.8 0.0
19/01:00am 10.3 5.1 0.3 50 4.1 SSW 17 17 9 9 1021.9 1021.8 0.0
19/12:30am 9.8 5.7 -0.1 50 4.0 SSW 11 13 6 7 1022.1 1022.0 0.0
19/12:00am 10.8 6.3 0.0 47 4.4 SSW 13 17 7 9 1022.3 1022.2 0.0
 
Date/Time
EST
Temp
°C
App
Temp
°C
Dew
Point
°C
Rel
Hum
%
Delta-T
°C
Wind Press
QNH
hPa
Press
MSL
hPa
Rain since
9am
mm
Dir  Spd
km/h
Gust
km/h
Spd
kts
Gust
kts
18/11:30pm 11.7 6.5 0.2 45 4.8 SSW 17 20 9 11 1022.3 1022.2 0.0

Other formats

Comma delimited format used in spreadsheet applications
http://www.bom.gov.au/fwo/IDQ60801/IDQ60801.95487.axf

JavaScript Object Notation format (JSON) in row-major order
http://www.bom.gov.au/fwo/IDQ60801/IDQ60801.95487.json

Data quality

Most of these data are generated automatically and are frequently updated. Quality checks on data are not normally performed. It is possible for incorrect values to appear. Refer to information at About Latest Weather Observations and please check the disclaimer before using these data.